createdAt,value
2022-09-10T00:01:32.874Z,100.00
2022-09-10T00:04:02.156Z,100.00
2022-09-10T00:06:34.378Z,100.00
2022-09-10T00:09:03.951Z,100.00
2022-09-10T00:11:32.926Z,100.00
2022-09-10T00:14:02.337Z,100.00
2022-09-10T00:16:31.369Z,100.00
2022-09-10T00:19:01.154Z,100.00
2022-09-10T00:21:30.026Z,100.00
2022-09-10T00:23:58.841Z,100.00
2022-09-10T00:26:30.554Z,100.00
2022-09-10T00:29:00.112Z,100.00
2022-09-10T00:31:30.130Z,100.00
2022-09-10T00:33:59.818Z,100.00
2022-09-10T00:36:29.818Z,100.00
2022-09-10T00:39:01.096Z,100.00
2022-09-10T00:41:31.660Z,100.00
2022-09-10T00:44:02.308Z,100.00
2022-09-10T00:46:37.887Z,100.00
2022-09-10T00:49:15.070Z,100.00
2022-09-10T00:51:43.407Z,100.00
2022-09-10T00:54:12.388Z,100.00
2022-09-10T00:56:43.100Z,100.00
2022-09-10T00:59:15.184Z,100.00
2022-09-10T01:01:44.172Z,100.00
2022-09-10T01:04:12.788Z,100.00
2022-09-10T01:06:42.848Z,100.00
2022-09-10T01:09:11.676Z,100.00
2022-09-10T01:11:57.676Z,100.00
2022-09-10T01:14:39.820Z,100.00
2022-09-10T01:17:18.319Z,100.00
2022-09-10T01:20:16.114Z,100.00
2022-09-10T01:23:04.011Z,100.00
2022-09-10T01:25:44.934Z,100.00
2022-09-10T01:28:21.822Z,100.00
2022-09-10T01:30:56.773Z,100.00
2022-09-10T01:33:34.116Z,100.00
2022-09-10T01:36:09.654Z,100.00
2022-09-10T01:38:39.866Z,100.00
2022-09-10T01:41:09.228Z,100.00
2022-09-10T01:43:42.832Z,100.00
2022-09-10T01:46:26.962Z,100.00
2022-09-10T01:49:15.925Z,100.00
2022-09-10T01:51:59.436Z,100.00
2022-09-10T01:54:40.686Z,100.00
2022-09-10T01:57:22.183Z,100.00
2022-09-10T01:59:59.983Z,100.00
2022-09-10T02:02:33.364Z,100.00
2022-09-10T02:05:03.896Z,100.00
2022-09-10T02:07:36.587Z,100.00
2022-09-10T02:10:08.810Z,100.00
2022-09-10T02:12:43.278Z,100.00
2022-09-10T02:15:31.137Z,100.00
2022-09-10T02:18:11.240Z,100.00
2022-09-10T02:20:40.568Z,100.00
2022-09-10T02:23:10.782Z,100.00
2022-09-10T02:25:39.299Z,100.00
2022-09-10T02:28:07.554Z,100.00
2022-09-10T02:30:37.158Z,100.00
2022-09-10T02:33:05.299Z,100.00
2022-09-10T02:35:33.468Z,100.00
2022-09-10T02:38:01.594Z,100.00
2022-09-10T02:40:31.788Z,100.00
2022-09-10T02:43:00.488Z,100.00
2022-09-10T02:45:31.214Z,100.00
2022-09-10T02:48:01.305Z,100.00
2022-09-10T02:50:31.174Z,100.00
2022-09-10T02:53:00.999Z,100.00
2022-09-10T02:55:29.463Z,100.00
2022-09-10T02:57:58.358Z,100.00
2022-09-10T03:00:27.506Z,100.00
2022-09-10T03:03:02.346Z,100.00
2022-09-10T03:05:33.335Z,100.00
2022-09-10T03:08:01.518Z,100.00
2022-09-10T03:10:32.130Z,100.00
2022-09-10T03:13:00.829Z,100.00
2022-09-10T03:15:29.360Z,100.00
2022-09-10T03:17:58.276Z,100.00
2022-09-10T03:20:27.525Z,100.00
2022-09-10T03:22:57.259Z,100.00
2022-09-10T03:25:25.412Z,100.00
2022-09-10T03:27:59.771Z,100.00
2022-09-10T03:30:29.184Z,100.00
2022-09-10T03:32:57.561Z,100.00
2022-09-10T03:35:26.225Z,100.00
2022-09-10T03:37:54.616Z,100.00
2022-09-10T03:40:25.262Z,100.00
2022-09-10T03:42:53.896Z,100.00
2022-09-10T03:45:22.473Z,100.00
2022-09-10T03:47:51.996Z,100.00
2022-09-10T03:50:21.103Z,100.00
2022-09-10T03:52:50.099Z,100.00
2022-09-10T03:55:18.923Z,100.00
2022-09-10T03:57:48.817Z,100.00
2022-09-10T04:00:17.892Z,100.00
2022-09-10T04:02:50.924Z,100.00
2022-09-10T04:05:19.206Z,100.00
2022-09-10T04:07:47.489Z,100.00
2022-09-10T04:10:15.859Z,100.00
2022-09-10T04:12:44.504Z,100.00
2022-09-10T04:15:14.039Z,100.00
2022-09-10T04:17:42.235Z,100.00
2022-09-10T04:20:11.994Z,100.00
2022-09-10T04:22:40.774Z,100.00
2022-09-10T04:25:09.742Z,100.00
2022-09-10T04:27:40.811Z,100.00
2022-09-10T04:30:10.948Z,100.00
2022-09-10T04:32:40.534Z,100.00
2022-09-10T04:35:10.855Z,100.00
2022-09-10T04:37:38.990Z,100.00
2022-09-10T04:40:09.379Z,100.00
2022-09-10T04:42:39.111Z,100.00
2022-09-10T04:45:08.628Z,100.00
2022-09-10T04:47:37.971Z,100.00
2022-09-10T04:50:11.286Z,100.00
2022-09-10T04:52:39.478Z,100.00
2022-09-10T04:55:09.736Z,100.00
2022-09-10T04:57:38.142Z,100.00
2022-09-10T05:00:07.798Z,100.00
2022-09-10T05:02:38.966Z,100.00
2022-09-10T05:05:09.527Z,100.00
2022-09-10T05:07:38.638Z,100.00
2022-09-10T05:10:10.379Z,100.00
2022-09-10T05:12:39.637Z,100.00
2022-09-10T05:15:10.216Z,100.00
2022-09-10T05:17:38.395Z,100.00
2022-09-10T05:20:07.768Z,100.00
2022-09-10T05:22:42.881Z,100.00
2022-09-10T05:25:11.102Z,100.00
2022-09-10T05:27:39.803Z,100.00
2022-09-10T05:30:10.284Z,100.00
2022-09-10T05:32:40.121Z,100.00
2022-09-10T05:35:09.979Z,100.00
2022-09-10T05:37:42.612Z,100.00
2022-09-10T05:40:14.866Z,100.00
2022-09-10T05:42:43.517Z,100.00
2022-09-10T05:45:12.005Z,100.00
2022-09-10T05:47:40.215Z,100.00
2022-09-10T05:50:08.852Z,100.00
2022-09-10T05:52:39.420Z,100.00
2022-09-10T05:55:11.307Z,100.00
2022-09-10T05:57:40.548Z,100.00
2022-09-10T06:00:12.559Z,100.00
2022-09-10T06:02:51.163Z,100.00
2022-09-10T06:05:29.035Z,100.00
2022-09-10T06:07:57.833Z,100.00
2022-09-10T06:10:27.425Z,100.00
2022-09-10T06:12:55.550Z,100.00
2022-09-10T06:15:23.746Z,100.00
2022-09-10T06:17:55.823Z,100.00
2022-09-10T06:20:25.466Z,100.00
2022-09-10T06:22:54.784Z,100.00
2022-09-10T06:25:22.952Z,100.00
2022-09-10T06:27:53.240Z,100.00
2022-09-10T06:30:21.681Z,100.00
2022-09-10T06:32:50.296Z,100.00
2022-09-10T06:35:18.647Z,100.00
2022-09-10T06:37:47.410Z,100.00
2022-09-10T06:40:18.525Z,100.00
2022-09-10T06:42:46.918Z,100.00
2022-09-10T06:45:16.470Z,100.00
2022-09-10T06:48:47.544Z,100.00
2022-09-10T06:51:17.924Z,100.00
2022-09-10T06:53:47.686Z,100.00
2022-09-10T06:56:20.989Z,100.00
2022-09-10T06:58:50.440Z,100.00
2022-09-10T07:01:22.890Z,100.00
2022-09-10T07:03:56.819Z,100.00
2022-09-10T07:06:27.627Z,100.00
2022-09-10T07:09:05.553Z,100.00
2022-09-10T07:11:41.548Z,100.00
2022-09-10T07:14:12.323Z,98.35
2022-09-10T07:16:44.848Z,98.06
2022-09-10T07:19:15.122Z,96.64
2022-09-10T07:21:50.149Z,96.56
2022-09-10T07:24:20.112Z,96.46
2022-09-10T07:27:01.440Z,95.76
2022-09-10T07:29:31.409Z,92.68
2022-09-10T07:32:03.448Z,90.79
2022-09-10T07:34:32.567Z,90.73
2022-09-10T07:37:02.142Z,88.52
2022-09-10T07:39:31.443Z,88.80
2022-09-10T07:42:00.628Z,86.80
2022-09-10T07:44:31.566Z,85.98
2022-09-10T07:47:04.912Z,88.17
2022-09-10T07:49:34.188Z,86.61
2022-09-10T07:52:04.771Z,84.90
2022-09-10T07:54:40.035Z,85.27
2022-09-10T07:57:08.156Z,84.62
2022-09-10T07:59:37.237Z,83.49
2022-09-10T08:02:07.430Z,84.25
2022-09-10T08:04:37.738Z,83.23
2022-09-10T08:07:10.134Z,83.84
2022-09-10T08:09:40.470Z,82.32
2022-09-10T08:12:12.562Z,82.59
2022-09-10T08:14:42.356Z,81.28
2022-09-10T08:17:13.227Z,81.73
2022-09-10T08:19:44.819Z,81.54
2022-09-10T08:22:14.207Z,83.39
2022-09-10T08:24:48.670Z,81.74
2022-09-10T08:27:18.468Z,82.20
2022-09-10T08:29:48.356Z,78.92
2022-09-10T08:32:17.904Z,80.59
2022-09-10T08:34:46.410Z,81.43
2022-09-10T08:37:14.746Z,80.08
2022-09-10T08:39:42.957Z,79.06
2022-09-10T08:42:19.142Z,76.48
2022-09-10T08:44:51.938Z,77.99
2022-09-10T08:47:33.358Z,79.01
2022-09-10T08:50:13.228Z,77.97
2022-09-10T08:52:48.871Z,77.27
2022-09-10T08:55:32.175Z,77.07
2022-09-10T08:58:04.659Z,77.93
2022-09-10T09:00:37.961Z,77.04
2022-09-10T09:03:22.502Z,75.74
2022-09-10T09:05:55.865Z,76.65
2022-09-10T09:08:34.384Z,76.23
2022-09-10T09:11:14.078Z,76.01
2022-09-10T09:14:07.475Z,70.96
2022-09-10T09:16:53.203Z,71.89
2022-09-10T09:19:33.315Z,73.17
2022-09-10T09:22:09.255Z,73.86
2022-09-10T09:24:53.723Z,73.22
2022-09-10T09:27:22.479Z,75.79
2022-09-10T09:29:59.759Z,76.28
2022-09-10T09:32:31.607Z,75.63
2022-09-10T09:35:10.139Z,74.58
2022-09-10T09:37:43.263Z,74.86
2022-09-10T09:40:25.880Z,75.45
2022-09-10T09:42:59.279Z,73.70
2022-09-10T09:45:37.303Z,73.63
2022-09-10T09:48:07.460Z,71.45
2022-09-10T09:50:41.820Z,71.30
2022-09-10T09:53:15.223Z,71.34
2022-09-10T09:55:45.798Z,71.47
2022-09-10T09:58:37.351Z,71.98
2022-09-10T10:01:14.577Z,70.48
2022-09-10T10:03:51.679Z,71.11
2022-09-10T10:06:24.608Z,74.03
2022-09-10T10:09:04.778Z,71.77
2022-09-10T10:11:45.438Z,74.62
2022-09-10T10:14:38.214Z,74.93
2022-09-10T10:17:27.271Z,72.67
2022-09-10T10:20:01.384Z,74.27
2022-09-10T10:22:32.008Z,74.89
2022-09-10T10:25:01.682Z,76.70
2022-09-10T10:27:35.832Z,76.57
2022-09-10T10:30:22.006Z,75.41
2022-09-10T10:32:54.539Z,74.12
2022-09-10T10:35:34.062Z,73.33
2022-09-10T10:38:19.856Z,73.15
2022-09-10T10:40:57.146Z,73.63
2022-09-10T10:43:42.677Z,73.48
2022-09-10T10:46:18.759Z,71.27
2022-09-10T10:49:03.508Z,70.83
2022-09-10T10:51:42.297Z,70.46
2022-09-10T10:54:29.443Z,72.55
2022-09-10T10:57:06.829Z,72.94
2022-09-10T10:59:53.040Z,73.67
2022-09-10T11:02:32.021Z,72.11
2022-09-10T11:05:06.498Z,72.14
2022-09-10T11:07:40.102Z,73.33
2022-09-10T11:10:20.607Z,71.82
2022-09-10T11:12:55.186Z,69.59
2022-09-10T11:15:30.358Z,69.35
2022-09-10T11:18:07.814Z,70.29
2022-09-10T11:20:42.661Z,71.05
2022-09-10T11:23:21.886Z,68.43
2022-09-10T11:25:57.151Z,69.98
2022-09-10T11:28:31.344Z,71.69
2022-09-10T11:31:09.864Z,72.63
2022-09-10T11:33:46.744Z,72.13
2022-09-10T11:36:23.203Z,72.56
2022-09-10T11:39:04.059Z,71.71
2022-09-10T11:41:35.463Z,71.25
2022-09-10T11:44:12.250Z,70.55
2022-09-10T11:46:45.744Z,71.55
2022-09-10T11:49:21.748Z,71.72
2022-09-10T11:51:50.530Z,70.47
2022-09-10T11:54:26.803Z,72.71
2022-09-10T11:57:02.969Z,73.04
2022-09-10T11:59:47.697Z,73.05
2022-09-10T12:02:40.394Z,76.39
2022-09-10T12:05:23.615Z,72.93
2022-09-10T12:08:00.938Z,71.42
2022-09-10T12:10:35.284Z,69.62
2022-09-10T12:13:09.766Z,70.48
2022-09-10T12:15:38.607Z,71.59
2022-09-10T12:18:14.263Z,73.23
2022-09-10T12:20:45.619Z,71.69
2022-09-10T12:23:18.285Z,71.12
2022-09-10T12:25:46.680Z,69.69
2022-09-10T12:28:58.286Z,68.69
2022-09-10T12:31:27.610Z,68.66
2022-09-10T12:34:18.008Z,69.77
2022-09-10T12:37:34.598Z,68.30
2022-09-10T12:40:40.183Z,67.51
2022-09-10T12:43:47.300Z,67.12
2022-09-10T12:46:22.760Z,66.97
2022-09-10T12:49:05.234Z,64.81
2022-09-10T12:51:46.219Z,64.42
2022-09-10T12:54:36.106Z,62.31
2022-09-10T12:57:21.417Z,62.04
2022-09-10T13:00:13.009Z,63.41
2022-09-10T13:02:50.234Z,62.36
2022-09-10T13:05:30.157Z,63.79
2022-09-10T13:08:06.039Z,64.67
2022-09-10T13:10:35.012Z,63.87
2022-09-10T13:13:06.936Z,62.43
2022-09-10T13:15:39.272Z,64.06
2022-09-10T13:18:28.395Z,64.47
2022-09-10T13:20:57.196Z,64.19
2022-09-10T13:23:47.593Z,67.96
2022-09-10T13:26:48.592Z,68.92
2022-09-10T13:29:36.070Z,68.39
2022-09-10T13:32:10.678Z,67.85
2022-09-10T13:35:11.440Z,64.69
2022-09-10T13:37:59.335Z,66.76
2022-09-10T13:40:52.117Z,61.77
2022-09-10T13:43:39.064Z,60.65
2022-09-10T13:46:11.608Z,59.61
2022-09-10T13:48:47.135Z,60.54
2022-09-10T13:51:25.954Z,63.17
2022-09-10T13:53:54.883Z,63.44
2022-09-10T13:56:27.627Z,63.25
2022-09-10T13:59:01.546Z,64.32
2022-09-10T14:01:51.357Z,62.87
2022-09-10T14:04:24.466Z,62.47
2022-09-10T14:06:55.710Z,61.87
2022-09-10T14:09:24.038Z,62.70
2022-09-10T14:11:52.464Z,64.14
2022-09-10T14:14:23.936Z,63.37
2022-09-10T14:16:53.635Z,63.24
2022-09-10T14:19:24.499Z,64.21
2022-09-10T14:21:55.813Z,62.83
2022-09-10T14:24:30.662Z,62.15
2022-09-10T14:27:18.906Z,63.63
2022-09-10T14:29:47.626Z,61.96
2022-09-10T14:32:30.703Z,62.48
2022-09-10T14:34:59.372Z,60.84
2022-09-10T14:37:36.261Z,61.92
2022-09-10T14:40:18.134Z,62.48
2022-09-10T14:42:47.442Z,60.53
2022-09-10T14:45:41.657Z,60.79
2022-09-10T14:48:30.069Z,61.24
2022-09-10T14:51:10.838Z,61.56
2022-09-10T14:53:41.825Z,60.75
2022-09-10T14:56:22.392Z,60.59
2022-09-10T14:58:57.870Z,60.88
2022-09-10T15:01:26.401Z,61.66
2022-09-10T15:03:55.372Z,59.07
2022-09-10T15:06:26.375Z,58.27
2022-09-10T15:08:57.064Z,57.49
2022-09-10T15:11:27.148Z,58.57
2022-09-10T15:13:58.783Z,58.57
2022-09-10T15:16:27.563Z,57.36
2022-09-10T15:18:55.881Z,58.34
2022-09-10T15:21:24.094Z,58.10
2022-09-10T15:23:52.253Z,59.28
2022-09-10T15:26:21.739Z,61.69
2022-09-10T15:28:50.061Z,59.48
2022-09-10T15:31:18.498Z,59.55
2022-09-10T15:33:46.665Z,58.07
2022-09-10T15:36:14.770Z,59.09
2022-09-10T15:38:43.138Z,58.40
2022-09-10T15:41:13.191Z,60.13
2022-09-10T15:43:44.183Z,58.99
2022-09-10T15:46:13.879Z,58.58
2022-09-10T15:48:42.892Z,56.06
2022-09-10T15:51:14.832Z,56.04
2022-09-10T15:53:43.271Z,57.97
2022-09-10T15:56:12.793Z,59.42
2022-09-10T15:58:43.260Z,59.90
2022-09-10T16:01:13.259Z,60.92
2022-09-10T16:03:46.586Z,61.73
2022-09-10T16:06:15.429Z,62.12
2022-09-10T16:08:49.138Z,63.04
2022-09-10T16:11:18.137Z,64.16
2022-09-10T16:13:47.830Z,65.19
2022-09-10T16:16:19.688Z,65.59
2022-09-10T16:18:51.286Z,66.27
2022-09-10T16:21:22.357Z,67.09
2022-09-10T16:23:52.445Z,67.91
2022-09-10T16:26:23.040Z,67.99
2022-09-10T16:28:53.726Z,69.23
2022-09-10T16:31:23.511Z,69.08
2022-09-10T16:33:55.012Z,69.36
2022-09-10T16:36:25.076Z,69.51
2022-09-10T16:38:54.702Z,70.17
2022-09-10T16:41:24.820Z,71.30
2022-09-10T16:43:55.074Z,70.67
2022-09-10T16:46:23.406Z,70.11
2022-09-10T16:48:53.648Z,71.76
2022-09-10T16:51:24.422Z,71.30
2022-09-10T16:53:57.761Z,71.85
2022-09-10T16:56:26.747Z,73.90
2022-09-10T16:58:57.582Z,73.25
2022-09-10T17:01:25.817Z,73.12
2022-09-10T17:03:54.245Z,73.74
2022-09-10T17:06:24.545Z,74.39
2022-09-10T17:08:53.983Z,74.96
2022-09-10T17:11:22.811Z,75.20
2022-09-10T17:13:51.447Z,75.46
2022-09-10T17:16:26.588Z,76.08
2022-09-10T17:18:59.582Z,75.84
2022-09-10T17:21:29.075Z,77.27
2022-09-10T17:23:57.846Z,78.68
2022-09-10T17:26:27.026Z,78.56
2022-09-10T17:28:57.107Z,78.33
2022-09-10T17:31:27.756Z,81.29
2022-09-10T17:33:56.726Z,84.55
2022-09-10T17:36:26.221Z,86.24
2022-09-10T17:38:55.579Z,88.88
2022-09-10T17:41:24.963Z,89.82
2022-09-10T17:43:53.115Z,89.74
2022-09-10T17:46:23.382Z,90.91
2022-09-10T17:48:54.482Z,92.24
2022-09-10T17:51:24.363Z,93.19
2022-09-10T17:53:53.901Z,93.95
2022-09-10T17:56:23.362Z,94.23
2022-09-10T17:58:57.154Z,94.35
2022-09-10T18:01:27.489Z,94.04
2022-09-10T18:03:57.328Z,94.66
2022-09-10T18:06:26.911Z,96.37
2022-09-10T18:08:55.187Z,96.46
2022-09-10T18:11:25.769Z,98.06
2022-09-10T18:13:57.156Z,99.44
2022-09-10T18:16:27.458Z,99.75
2022-09-10T18:18:59.333Z,100.00
2022-09-10T18:21:31.074Z,100.00
2022-09-10T18:24:01.630Z,100.00
2022-09-10T18:26:32.397Z,100.00
2022-09-10T18:29:01.982Z,100.00
2022-09-10T18:31:32.587Z,100.00
2022-09-10T18:34:02.540Z,99.90
2022-09-10T18:36:31.505Z,99.63
2022-09-10T18:39:03.185Z,98.93
2022-09-10T18:41:32.568Z,98.87
2022-09-10T18:44:04.049Z,98.11
2022-09-10T18:46:33.726Z,95.53
2022-09-10T18:49:04.608Z,94.80
2022-09-10T18:51:33.085Z,93.52
2022-09-10T18:54:04.056Z,92.76
2022-09-10T18:56:32.938Z,92.78
2022-09-10T18:59:04.886Z,92.92
2022-09-10T19:01:34.105Z,92.57
2022-09-10T19:04:07.038Z,92.12
2022-09-10T19:06:38.177Z,92.89
2022-09-10T19:09:09.251Z,92.05
2022-09-10T19:11:40.554Z,92.54
2022-09-10T19:14:14.757Z,92.12
2022-09-10T19:16:43.086Z,93.71
2022-09-10T19:19:16.571Z,96.24
2022-09-10T19:21:45.436Z,96.65
2022-09-10T19:24:14.786Z,96.18
2022-09-10T19:26:43.258Z,97.32
2022-09-10T19:29:12.918Z,98.35
2022-09-10T19:31:42.279Z,99.52
2022-09-10T19:34:13.636Z,100.00
2022-09-10T19:36:43.491Z,100.00
2022-09-10T19:39:13.959Z,100.00
2022-09-10T19:41:43.725Z,100.00
2022-09-10T19:44:13.987Z,100.00
2022-09-10T19:46:43.992Z,100.00
2022-09-10T19:49:13.485Z,100.00
2022-09-10T19:51:42.584Z,100.00
2022-09-10T19:54:12.012Z,100.00
2022-09-10T19:56:42.312Z,100.00
2022-09-10T19:59:10.965Z,100.00
2022-09-10T20:01:41.194Z,100.00
2022-09-10T20:04:12.071Z,100.00
2022-09-10T20:06:42.801Z,100.00
2022-09-10T20:09:11.023Z,100.00
2022-09-10T20:11:39.629Z,100.00
2022-09-10T20:14:09.884Z,100.00
2022-09-10T20:16:39.032Z,100.00
2022-09-10T20:19:08.159Z,100.00
2022-09-10T20:21:37.375Z,100.00
2022-09-10T20:24:08.733Z,100.00
2022-09-10T20:26:40.039Z,100.00
2022-09-10T20:29:12.162Z,100.00
2022-09-10T20:31:41.879Z,100.00
2022-09-10T20:34:13.128Z,100.00
2022-09-10T20:36:42.291Z,100.00
2022-09-10T20:39:14.203Z,100.00
2022-09-10T20:41:42.366Z,100.00
2022-09-10T20:44:13.612Z,100.00
2022-09-10T20:46:42.868Z,100.00
2022-09-10T20:49:12.725Z,100.00
2022-09-10T20:51:41.649Z,100.00
2022-09-10T20:54:13.898Z,100.00
2022-09-10T20:56:42.222Z,100.00
2022-09-10T20:59:12.791Z,100.00
2022-09-10T21:01:41.021Z,100.00
2022-09-10T21:04:09.407Z,100.00
2022-09-10T21:06:37.912Z,100.00
2022-09-10T21:09:07.386Z,100.00
2022-09-10T21:11:37.479Z,100.00
2022-09-10T21:14:07.477Z,100.00
2022-09-10T21:16:37.658Z,100.00
2022-09-10T21:19:08.444Z,100.00
2022-09-10T21:21:38.897Z,100.00
2022-09-10T21:24:09.099Z,100.00
2022-09-10T21:26:40.786Z,100.00
2022-09-10T21:29:12.185Z,100.00
2022-09-10T21:31:41.014Z,100.00
2022-09-10T21:34:09.779Z,100.00
2022-09-10T21:36:41.030Z,100.00
2022-09-10T21:39:13.896Z,100.00
2022-09-10T21:41:45.023Z,100.00
2022-09-10T21:44:15.057Z,100.00
2022-09-10T21:46:44.012Z,100.00
2022-09-10T21:49:12.934Z,100.00
2022-09-10T21:51:42.122Z,100.00
2022-09-10T21:54:14.622Z,100.00
2022-09-10T21:56:44.067Z,100.00
2022-09-10T21:59:13.041Z,100.00
2022-09-10T22:01:43.540Z,100.00
2022-09-10T22:04:13.181Z,100.00
2022-09-10T22:06:41.475Z,100.00
2022-09-10T22:09:11.683Z,100.00
2022-09-10T22:11:42.088Z,100.00
2022-09-10T22:14:15.775Z,100.00
2022-09-10T22:16:45.468Z,100.00
2022-09-10T22:19:15.854Z,100.00
2022-09-10T22:21:44.110Z,100.00
2022-09-10T22:24:14.676Z,100.00
2022-09-10T22:26:44.915Z,100.00
2022-09-10T22:29:17.071Z,100.00
2022-09-10T22:31:45.555Z,100.00
2022-09-10T22:34:15.931Z,100.00
2022-09-10T22:36:45.635Z,100.00
2022-09-10T22:39:15.687Z,100.00
2022-09-10T22:41:45.135Z,100.00
2022-09-10T22:44:14.655Z,100.00
2022-09-10T22:46:43.187Z,100.00
2022-09-10T22:49:11.710Z,100.00
2022-09-10T22:51:41.808Z,100.00
2022-09-10T22:54:11.166Z,100.00
2022-09-10T22:56:39.921Z,100.00
2022-09-10T22:59:12.619Z,100.00
2022-09-10T23:01:43.512Z,100.00
2022-09-10T23:04:12.432Z,100.00
2022-09-10T23:06:40.756Z,100.00
2022-09-10T23:09:12.290Z,100.00
2022-09-10T23:11:41.408Z,100.00
2022-09-10T23:14:13.002Z,100.00
2022-09-10T23:16:44.286Z,100.00
2022-09-10T23:19:14.522Z,100.00
2022-09-10T23:21:45.579Z,100.00
2022-09-10T23:24:17.182Z,100.00
2022-09-10T23:26:46.100Z,100.00
2022-09-10T23:29:17.063Z,100.00
2022-09-10T23:31:47.957Z,100.00
2022-09-10T23:34:18.426Z,100.00
2022-09-10T23:36:49.443Z,100.00
2022-09-10T23:39:20.030Z,100.00
2022-09-10T23:41:49.033Z,100.00
2022-09-10T23:44:17.414Z,100.00
2022-09-10T23:46:47.015Z,100.00
2022-09-10T23:49:15.955Z,100.00
2022-09-10T23:51:44.352Z,100.00
2022-09-10T23:54:13.027Z,100.00
2022-09-10T23:56:41.507Z,100.00
2022-09-10T23:59:09.996Z,100.00
